sensor_id;sensor_type;location;lat;lon;timestamp;temperature;humidity
27384;DHT22;14851;51.166;4.760;2023-03-23T00:01:18;12.30;99.90
27384;DHT22;14851;51.166;4.760;2023-03-23T00:03:49;12.30;99.90
27384;DHT22;14851;51.166;4.760;2023-03-23T00:06:17;12.30;99.90
27384;DHT22;14851;51.166;4.760;2023-03-23T00:08:48;12.30;99.90
27384;DHT22;14851;51.166;4.760;2023-03-23T00:11:17;12.30;99.90
27384;DHT22;14851;51.166;4.760;2023-03-23T00:13:45;12.40;99.90
27384;DHT22;14851;51.166;4.760;2023-03-23T00:16:12;12.50;99.90
27384;DHT22;14851;51.166;4.760;2023-03-23T00:18:49;12.40;99.90
27384;DHT22;14851;51.166;4.760;2023-03-23T00:21:19;12.50;99.90
27384;DHT22;14851;51.166;4.760;2023-03-23T00:23:46;12.50;99.90
27384;DHT22;14851;51.166;4.760;2023-03-23T00:26:12;12.50;99.90
27384;DHT22;14851;51.166;4.760;2023-03-23T00:28:38;12.40;99.90
27384;DHT22;14851;51.166;4.760;2023-03-23T00:31:10;12.40;99.90
27384;DHT22;14851;51.166;4.760;2023-03-23T00:33:37;12.50;99.90
27384;DHT22;14851;51.166;4.760;2023-03-23T00:36:07;12.50;99.90
27384;DHT22;14851;51.166;4.760;2023-03-23T00:38:35;12.50;99.90
27384;DHT22;14851;51.166;4.760;2023-03-23T00:41:02;12.50;99.90
27384;DHT22;14851;51.166;4.760;2023-03-23T00:43:33;12.50;99.90
27384;DHT22;14851;51.166;4.760;2023-03-23T00:46:03;12.40;99.90
27384;DHT22;14851;51.166;4.760;2023-03-23T00:48:38;12.40;99.90
27384;DHT22;14851;51.166;4.760;2023-03-23T00:51:11;12.50;99.90
27384;DHT22;14851;51.166;4.760;2023-03-23T00:53:42;12.50;99.90
27384;DHT22;14851;51.166;4.760;2023-03-23T00:56:09;12.50;99.90
27384;DHT22;14851;51.166;4.760;2023-03-23T00:58:35;12.50;99.90
27384;DHT22;14851;51.166;4.760;2023-03-23T01:01:02;12.50;99.90
27384;DHT22;14851;51.166;4.760;2023-03-23T01:03:28;12.50;99.90
27384;DHT22;14851;51.166;4.760;2023-03-23T01:06:03;12.50;99.90
27384;DHT22;14851;51.166;4.760;2023-03-23T01:08:28;12.60;99.90
27384;DHT22;14851;51.166;4.760;2023-03-23T01:11:05;12.60;99.90
27384;DHT22;14851;51.166;4.760;2023-03-23T01:13:33;12.60;99.90
27384;DHT22;14851;51.166;4.760;2023-03-23T01:15:59;12.60;99.90
27384;DHT22;14851;51.166;4.760;2023-03-23T01:18:25;12.60;99.90
27384;DHT22;14851;51.166;4.760;2023-03-23T01:20:51;12.60;99.90
27384;DHT22;14851;51.166;4.760;2023-03-23T01:23:20;12.60;99.90
27384;DHT22;14851;51.166;4.760;2023-03-23T01:25:46;12.60;99.90
27384;DHT22;14851;51.166;4.760;2023-03-23T01:28:15;12.60;99.90
27384;DHT22;14851;51.166;4.760;2023-03-23T01:30:41;12.60;99.90
27384;DHT22;14851;51.166;4.760;2023-03-23T01:33:10;12.60;99.90
27384;DHT22;14851;51.166;4.760;2023-03-23T01:35:37;12.60;99.90
27384;DHT22;14851;51.166;4.760;2023-03-23T01:38:04;12.60;99.90
27384;DHT22;14851;51.166;4.760;2023-03-23T01:40:30;12.60;99.90
27384;DHT22;14851;51.166;4.760;2023-03-23T01:42:56;12.60;99.90
27384;DHT22;14851;51.166;4.760;2023-03-23T01:45:34;12.60;99.90
27384;DHT22;14851;51.166;4.760;2023-03-23T01:48:06;12.60;99.90
27384;DHT22;14851;51.166;4.760;2023-03-23T01:50:42;12.60;99.90
27384;DHT22;14851;51.166;4.760;2023-03-23T01:53:13;12.60;99.90
27384;DHT22;14851;51.166;4.760;2023-03-23T01:55:41;12.70;99.90
27384;DHT22;14851;51.166;4.760;2023-03-23T01:58:09;12.80;99.90
27384;DHT22;14851;51.166;4.760;2023-03-23T02:00:38;12.70;99.90
27384;DHT22;14851;51.166;4.760;2023-03-23T02:03:08;12.70;99.90
27384;DHT22;14851;51.166;4.760;2023-03-23T02:05:40;12.70;99.90
27384;DHT22;14851;51.166;4.760;2023-03-23T02:08:16;12.70;99.90
27384;DHT22;14851;51.166;4.760;2023-03-23T02:10:44;12.70;99.90
27384;DHT22;14851;51.166;4.760;2023-03-23T02:13:13;12.60;99.90
27384;DHT22;14851;51.166;4.760;2023-03-23T02:15:45;12.70;99.90
27384;DHT22;14851;51.166;4.760;2023-03-23T02:18:31;12.70;99.90
27384;DHT22;14851;51.166;4.760;2023-03-23T02:24:00;12.70;99.90
27384;DHT22;14851;51.166;4.760;2023-03-23T02:26:41;12.70;99.90
27384;DHT22;14851;51.166;4.760;2023-03-23T02:32:12;12.70;99.90
27384;DHT22;14851;51.166;4.760;2023-03-23T02:34:44;12.70;99.90
27384;DHT22;14851;51.166;4.760;2023-03-23T02:37:35;12.70;99.90
27384;DHT22;14851;51.166;4.760;2023-03-23T02:40:09;12.70;99.90
27384;DHT22;14851;51.166;4.760;2023-03-23T02:42:40;12.70;99.90
27384;DHT22;14851;51.166;4.760;2023-03-23T02:45:10;12.70;99.90
27384;DHT22;14851;51.166;4.760;2023-03-23T02:47:38;12.80;99.90
27384;DHT22;14851;51.166;4.760;2023-03-23T02:50:10;12.80;99.90
27384;DHT22;14851;51.166;4.760;2023-03-23T02:52:38;12.80;99.90
27384;DHT22;14851;51.166;4.760;2023-03-23T02:55:07;12.80;99.90
27384;DHT22;14851;51.166;4.760;2023-03-23T02:57:38;12.80;99.90
27384;DHT22;14851;51.166;4.760;2023-03-23T03:00:06;12.80;99.90
27384;DHT22;14851;51.166;4.760;2023-03-23T03:02:43;12.80;99.90
27384;DHT22;14851;51.166;4.760;2023-03-23T03:05:46;12.80;99.90
27384;DHT22;14851;51.166;4.760;2023-03-23T03:11:08;12.80;99.90
27384;DHT22;14851;51.166;4.760;2023-03-23T03:13:58;12.80;99.90
27384;DHT22;14851;51.166;4.760;2023-03-23T03:19:25;12.80;99.90
27384;DHT22;14851;51.166;4.760;2023-03-23T03:21:58;12.70;99.90
27384;DHT22;14851;51.166;4.760;2023-03-23T03:24:39;12.80;99.90
27384;DHT22;14851;51.166;4.760;2023-03-23T03:27:13;12.80;99.90
27384;DHT22;14851;51.166;4.760;2023-03-23T03:29:48;12.80;99.90
27384;DHT22;14851;51.166;4.760;2023-03-23T03:32:22;12.80;99.90
27384;DHT22;14851;51.166;4.760;2023-03-23T03:34:51;12.80;99.90
27384;DHT22;14851;51.166;4.760;2023-03-23T03:37:19;12.70;99.90
27384;DHT22;14851;51.166;4.760;2023-03-23T03:39:48;12.70;99.90
27384;DHT22;14851;51.166;4.760;2023-03-23T03:42:14;12.70;99.90
27384;DHT22;14851;51.166;4.760;2023-03-23T03:44:40;12.80;99.90
27384;DHT22;14851;51.166;4.760;2023-03-23T03:47:06;12.80;99.90
27384;DHT22;14851;51.166;4.760;2023-03-23T03:49:32;12.80;99.90
27384;DHT22;14851;51.166;4.760;2023-03-23T03:51:58;12.70;99.90
27384;DHT22;14851;51.166;4.760;2023-03-23T03:54:33;12.80;99.90
27384;DHT22;14851;51.166;4.760;2023-03-23T03:57:00;12.70;99.90
27384;DHT22;14851;51.166;4.760;2023-03-23T04:00:02;12.70;99.90
27384;DHT22;14851;51.166;4.760;2023-03-23T04:02:48;12.70;99.90
27384;DHT22;14851;51.166;4.760;2023-03-23T04:05:35;12.60;99.90
27384;DHT22;14851;51.166;4.760;2023-03-23T04:08:02;12.70;99.90
27384;DHT22;14851;51.166;4.760;2023-03-23T04:10:31;12.70;99.90
27384;DHT22;14851;51.166;4.760;2023-03-23T04:13:01;12.60;99.90
27384;DHT22;14851;51.166;4.760;2023-03-23T04:15:57;12.60;99.90
27384;DHT22;14851;51.166;4.760;2023-03-23T04:18:23;12.70;99.90
27384;DHT22;14851;51.166;4.760;2023-03-23T04:20:51;12.70;99.90
27384;DHT22;14851;51.166;4.760;2023-03-23T04:23:20;12.70;99.90
27384;DHT22;14851;51.166;4.760;2023-03-23T04:25:54;12.70;99.90
27384;DHT22;14851;51.166;4.760;2023-03-23T04:28:27;12.70;99.90
27384;DHT22;14851;51.166;4.760;2023-03-23T04:31:19;12.70;99.90
27384;DHT22;14851;51.166;4.760;2023-03-23T04:33:52;12.70;99.90
27384;DHT22;14851;51.166;4.760;2023-03-23T04:36:23;12.70;99.90
27384;DHT22;14851;51.166;4.760;2023-03-23T04:38:58;12.70;99.90
27384;DHT22;14851;51.166;4.760;2023-03-23T04:41:28;12.70;99.90
27384;DHT22;14851;51.166;4.760;2023-03-23T04:44:20;12.70;99.90
27384;DHT22;14851;51.166;4.760;2023-03-23T04:47:01;12.60;99.90
27384;DHT22;14851;51.166;4.760;2023-03-23T04:49:29;12.70;99.90
27384;DHT22;14851;51.166;4.760;2023-03-23T04:52:06;12.70;99.90
27384;DHT22;14851;51.166;4.760;2023-03-23T04:54:42;12.80;99.90
27384;DHT22;14851;51.166;4.760;2023-03-23T04:57:09;12.80;99.90
27384;DHT22;14851;51.166;4.760;2023-03-23T04:59:39;12.80;99.90
27384;DHT22;14851;51.166;4.760;2023-03-23T05:02:14;12.80;99.90
27384;DHT22;14851;51.166;4.760;2023-03-23T05:04:44;12.80;99.90
27384;DHT22;14851;51.166;4.760;2023-03-23T05:07:14;12.70;99.90
27384;DHT22;14851;51.166;4.760;2023-03-23T05:09:49;12.60;99.90
27384;DHT22;14851;51.166;4.760;2023-03-23T05:12:17;12.60;99.90
27384;DHT22;14851;51.166;4.760;2023-03-23T05:14:59;12.60;99.90
27384;DHT22;14851;51.166;4.760;2023-03-23T05:17:30;12.60;99.90
27384;DHT22;14851;51.166;4.760;2023-03-23T05:20:00;12.60;99.90
27384;DHT22;14851;51.166;4.760;2023-03-23T05:22:43;12.60;99.90
27384;DHT22;14851;51.166;4.760;2023-03-23T05:25:18;12.60;99.90
27384;DHT22;14851;51.166;4.760;2023-03-23T05:27:56;12.50;99.90
27384;DHT22;14851;51.166;4.760;2023-03-23T05:30:54;12.60;99.90
27384;DHT22;14851;51.166;4.760;2023-03-23T05:33:23;12.60;99.90
27384;DHT22;14851;51.166;4.760;2023-03-23T05:36:12;12.60;99.90
27384;DHT22;14851;51.166;4.760;2023-03-23T05:39:12;12.60;99.90
27384;DHT22;14851;51.166;4.760;2023-03-23T05:42:07;12.60;99.90
27384;DHT22;14851;51.166;4.760;2023-03-23T05:44:47;12.60;99.90
27384;DHT22;14851;51.166;4.760;2023-03-23T05:47:14;12.50;99.90
27384;DHT22;14851;51.166;4.760;2023-03-23T05:49:48;12.60;99.90
27384;DHT22;14851;51.166;4.760;2023-03-23T05:52:17;12.60;99.90
27384;DHT22;14851;51.166;4.760;2023-03-23T05:54:44;12.60;99.90
27384;DHT22;14851;51.166;4.760;2023-03-23T05:57:11;12.60;99.90
27384;DHT22;14851;51.166;4.760;2023-03-23T05:59:46;12.50;99.90
27384;DHT22;14851;51.166;4.760;2023-03-23T06:02:20;12.60;99.90
27384;DHT22;14851;51.166;4.760;2023-03-23T06:04:51;12.60;99.90
27384;DHT22;14851;51.166;4.760;2023-03-23T06:07:27;12.50;99.90
27384;DHT22;14851;51.166;4.760;2023-03-23T06:09:58;12.50;99.90
27384;DHT22;14851;51.166;4.760;2023-03-23T06:12:24;12.50;99.90
27384;DHT22;14851;51.166;4.760;2023-03-23T06:15:22;12.50;99.90
27384;DHT22;14851;51.166;4.760;2023-03-23T06:18:17;12.50;99.90
27384;DHT22;14851;51.166;4.760;2023-03-23T06:20:56;12.50;99.90
27384;DHT22;14851;51.166;4.760;2023-03-23T06:23:39;12.50;99.90
27384;DHT22;14851;51.166;4.760;2023-03-23T06:26:07;12.40;99.90
27384;DHT22;14851;51.166;4.760;2023-03-23T06:28:34;12.40;99.90
27384;DHT22;14851;51.166;4.760;2023-03-23T06:31:05;12.50;99.90
27384;DHT22;14851;51.166;4.760;2023-03-23T06:33:35;12.50;99.90
27384;DHT22;14851;51.166;4.760;2023-03-23T06:36:27;12.50;99.90
27384;DHT22;14851;51.166;4.760;2023-03-23T06:39:16;12.50;99.90
27384;DHT22;14851;51.166;4.760;2023-03-23T06:42:01;12.50;99.90
27384;DHT22;14851;51.166;4.760;2023-03-23T06:44:31;12.50;99.90
27384;DHT22;14851;51.166;4.760;2023-03-23T06:46:58;12.50;99.90
27384;DHT22;14851;51.166;4.760;2023-03-23T06:49:29;12.50;99.90
27384;DHT22;14851;51.166;4.760;2023-03-23T06:52:05;12.50;99.90
27384;DHT22;14851;51.166;4.760;2023-03-23T06:54:34;12.50;99.90
27384;DHT22;14851;51.166;4.760;2023-03-23T06:57:04;12.60;99.90
27384;DHT22;14851;51.166;4.760;2023-03-23T06:59:30;12.60;99.90
27384;DHT22;14851;51.166;4.760;2023-03-23T07:01:57;12.60;99.90
27384;DHT22;14851;51.166;4.760;2023-03-23T07:04:24;12.50;99.90
27384;DHT22;14851;51.166;4.760;2023-03-23T07:07:01;12.40;99.90
27384;DHT22;14851;51.166;4.760;2023-03-23T07:09:32;12.30;99.90
27384;DHT22;14851;51.166;4.760;2023-03-23T07:11:59;12.20;99.90
27384;DHT22;14851;51.166;4.760;2023-03-23T07:14:34;12.10;99.90
27384;DHT22;14851;51.166;4.760;2023-03-23T07:17:03;12.00;99.90
27384;DHT22;14851;51.166;4.760;2023-03-23T07:19:35;12.00;99.90
27384;DHT22;14851;51.166;4.760;2023-03-23T07:22:04;11.90;99.90
27384;DHT22;14851;51.166;4.760;2023-03-23T07:24:30;11.80;99.90
27384;DHT22;14851;51.166;4.760;2023-03-23T07:27:26;11.80;99.90
27384;DHT22;14851;51.166;4.760;2023-03-23T07:29:55;11.80;99.90
27384;DHT22;14851;51.166;4.760;2023-03-23T07:32:25;11.80;99.90
27384;DHT22;14851;51.166;4.760;2023-03-23T07:34:54;11.80;99.90
27384;DHT22;14851;51.166;4.760;2023-03-23T07:37:42;11.70;99.90
27384;DHT22;14851;51.166;4.760;2023-03-23T07:40:09;11.70;99.90
27384;DHT22;14851;51.166;4.760;2023-03-23T07:42:53;11.60;99.90
27384;DHT22;14851;51.166;4.760;2023-03-23T07:45:29;11.60;99.90
27384;DHT22;14851;51.166;4.760;2023-03-23T07:47:56;11.60;99.90
27384;DHT22;14851;51.166;4.760;2023-03-23T07:50:23;11.60;99.90
27384;DHT22;14851;51.166;4.760;2023-03-23T07:52:56;11.50;99.90
27384;DHT22;14851;51.166;4.760;2023-03-23T07:55:27;11.50;99.90
27384;DHT22;14851;51.166;4.760;2023-03-23T07:58:01;11.50;99.90
27384;DHT22;14851;51.166;4.760;2023-03-23T08:00:29;11.40;99.90
27384;DHT22;14851;51.166;4.760;2023-03-23T08:02:58;11.50;99.90
27384;DHT22;14851;51.166;4.760;2023-03-23T08:05:45;11.40;99.90
27384;DHT22;14851;51.166;4.760;2023-03-23T08:08:44;11.40;99.90
27384;DHT22;14851;51.166;4.760;2023-03-23T08:11:29;11.30;99.90
27384;DHT22;14851;51.166;4.760;2023-03-23T08:14:07;11.30;99.90
27384;DHT22;14851;51.166;4.760;2023-03-23T08:17:12;11.40;99.90
27384;DHT22;14851;51.166;4.760;2023-03-23T08:19:56;11.30;99.90
27384;DHT22;14851;51.166;4.760;2023-03-23T08:22:52;11.40;99.90
27384;DHT22;14851;51.166;4.760;2023-03-23T08:25:38;11.40;99.90
27384;DHT22;14851;51.166;4.760;2023-03-23T08:28:21;11.40;99.90
27384;DHT22;14851;51.166;4.760;2023-03-23T08:31:23;11.50;99.90
27384;DHT22;14851;51.166;4.760;2023-03-23T08:34:07;11.50;99.90
27384;DHT22;14851;51.166;4.760;2023-03-23T08:37:04;11.50;99.90
27384;DHT22;14851;51.166;4.760;2023-03-23T08:39:59;11.50;99.90
27384;DHT22;14851;51.166;4.760;2023-03-23T08:42:54;11.50;99.90
27384;DHT22;14851;51.166;4.760;2023-03-23T08:45:38;11.50;99.90
27384;DHT22;14851;51.166;4.760;2023-03-23T08:48:16;11.50;99.90
27384;DHT22;14851;51.166;4.760;2023-03-23T08:51:02;11.50;99.90
27384;DHT22;14851;51.166;4.760;2023-03-23T08:53:47;11.50;99.90
27384;DHT22;14851;51.166;4.760;2023-03-23T08:56:31;11.50;99.90
27384;DHT22;14851;51.166;4.760;2023-03-23T08:59:16;11.50;99.90
27384;DHT22;14851;51.166;4.760;2023-03-23T09:02:05;11.40;99.90
27384;DHT22;14851;51.166;4.760;2023-03-23T09:04:40;11.40;99.90
27384;DHT22;14851;51.166;4.760;2023-03-23T09:07:10;11.40;99.90
27384;DHT22;14851;51.166;4.760;2023-03-23T09:09:38;11.40;99.90
27384;DHT22;14851;51.166;4.760;2023-03-23T09:12:08;11.40;99.90
27384;DHT22;14851;51.166;4.760;2023-03-23T09:14:35;11.50;99.90
27384;DHT22;14851;51.166;4.760;2023-03-23T09:17:05;11.50;99.90
27384;DHT22;14851;51.166;4.760;2023-03-23T09:19:32;11.50;99.90
27384;DHT22;14851;51.166;4.760;2023-03-23T09:21:59;11.50;99.90
27384;DHT22;14851;51.166;4.760;2023-03-23T09:24:26;11.50;99.90
27384;DHT22;14851;51.166;4.760;2023-03-23T09:26:54;11.50;99.90
27384;DHT22;14851;51.166;4.760;2023-03-23T09:29:20;11.50;99.90
27384;DHT22;14851;51.166;4.760;2023-03-23T09:31:47;11.50;99.90
27384;DHT22;14851;51.166;4.760;2023-03-23T09:34:14;11.50;99.90
27384;DHT22;14851;51.166;4.760;2023-03-23T09:36:42;11.50;99.90
27384;DHT22;14851;51.166;4.760;2023-03-23T09:39:08;11.50;99.90
27384;DHT22;14851;51.166;4.760;2023-03-23T09:44:43;11.60;99.90
27384;DHT22;14851;51.166;4.760;2023-03-23T09:50:18;11.70;99.90
27384;DHT22;14851;51.166;4.760;2023-03-23T09:53:08;11.80;99.90
27384;DHT22;14851;51.166;4.760;2023-03-23T09:55:35;11.80;99.90
27384;DHT22;14851;51.166;4.760;2023-03-23T09:58:27;11.80;99.90
27384;DHT22;14851;51.166;4.760;2023-03-23T10:01:14;11.90;99.90
27384;DHT22;14851;51.166;4.760;2023-03-23T10:03:43;12.00;99.90
27384;DHT22;14851;51.166;4.760;2023-03-23T10:06:11;12.00;99.90
27384;DHT22;14851;51.166;4.760;2023-03-23T10:09:03;12.10;99.90
27384;DHT22;14851;51.166;4.760;2023-03-23T10:19:35;12.30;99.90
27384;DHT22;14851;51.166;4.760;2023-03-23T10:22:10;12.30;99.90
27384;DHT22;14851;51.166;4.760;2023-03-23T10:24:48;12.30;99.90
27384;DHT22;14851;51.166;4.760;2023-03-23T10:27:50;12.30;99.90
27384;DHT22;14851;51.166;4.760;2023-03-23T10:36:30;12.40;99.90
27384;DHT22;14851;51.166;4.760;2023-03-23T10:41:36;12.40;99.90
27384;DHT22;14851;51.166;4.760;2023-03-23T10:44:09;12.50;99.90
27384;DHT22;14851;51.166;4.760;2023-03-23T10:49:23;12.60;99.90
27384;DHT22;14851;51.166;4.760;2023-03-23T10:52:04;12.60;99.90
27384;DHT22;14851;51.166;4.760;2023-03-23T10:54:36;12.60;99.90
27384;DHT22;14851;51.166;4.760;2023-03-23T10:57:24;12.70;99.90
27384;DHT22;14851;51.166;4.760;2023-03-23T10:59:51;12.70;99.90
27384;DHT22;14851;51.166;4.760;2023-03-23T11:02:18;12.70;99.90
27384;DHT22;14851;51.166;4.760;2023-03-23T11:04:56;12.80;99.90
27384;DHT22;14851;51.166;4.760;2023-03-23T11:07:30;12.80;99.90
27384;DHT22;14851;51.166;4.760;2023-03-23T11:10:06;12.90;99.90
27384;DHT22;14851;51.166;4.760;2023-03-23T11:12:34;12.90;99.90
27384;DHT22;14851;51.166;4.760;2023-03-23T11:15:26;13.00;99.90
27384;DHT22;14851;51.166;4.760;2023-03-23T11:18:05;13.00;99.90
27384;DHT22;14851;51.166;4.760;2023-03-23T11:20:41;13.00;99.90
27384;DHT22;14851;51.166;4.760;2023-03-23T11:23:20;13.10;99.90
27384;DHT22;14851;51.166;4.760;2023-03-23T11:28:51;13.10;99.90
27384;DHT22;14851;51.166;4.760;2023-03-23T11:31:22;13.10;99.90
27384;DHT22;14851;51.166;4.760;2023-03-23T11:34:19;13.20;99.90
27384;DHT22;14851;51.166;4.760;2023-03-23T11:36:51;13.30;99.90
27384;DHT22;14851;51.166;4.760;2023-03-23T11:39:30;13.40;99.90
27384;DHT22;14851;51.166;4.760;2023-03-23T11:42:00;13.50;99.90
27384;DHT22;14851;51.166;4.760;2023-03-23T11:44:41;13.60;99.90
27384;DHT22;14851;51.166;4.760;2023-03-23T11:50:08;13.70;99.90
27384;DHT22;14851;51.166;4.760;2023-03-23T11:52:46;13.70;99.90
27384;DHT22;14851;51.166;4.760;2023-03-23T11:55:30;13.70;99.90
27384;DHT22;14851;51.166;4.760;2023-03-23T11:58:01;13.80;99.90
27384;DHT22;14851;51.166;4.760;2023-03-23T12:00:31;13.80;99.90
27384;DHT22;14851;51.166;4.760;2023-03-23T12:06:23;14.00;99.90
27384;DHT22;14851;51.166;4.760;2023-03-23T12:11:51;14.00;99.90
27384;DHT22;14851;51.166;4.760;2023-03-23T12:17:32;14.00;99.90
27384;DHT22;14851;51.166;4.760;2023-03-23T12:20:31;14.10;99.90
27384;DHT22;14851;51.166;4.760;2023-03-23T12:26:17;14.30;99.90
27384;DHT22;14851;51.166;4.760;2023-03-23T12:39:57;14.50;99.90
27384;DHT22;14851;51.166;4.760;2023-03-23T12:48:17;14.70;99.90
27384;DHT22;14851;51.166;4.760;2023-03-23T12:56:31;14.80;99.90
27384;DHT22;14851;51.166;4.760;2023-03-23T12:59:21;14.90;99.90
27384;DHT22;14851;51.166;4.760;2023-03-23T13:04:42;15.00;99.90
27384;DHT22;14851;51.166;4.760;2023-03-23T13:07:17;15.00;99.90
27384;DHT22;14851;51.166;4.760;2023-03-23T13:12:35;15.00;99.90
27384;DHT22;14851;51.166;4.760;2023-03-23T13:18:10;15.30;99.90
27384;DHT22;14851;51.166;4.760;2023-03-23T13:23:31;15.40;99.90
27384;DHT22;14851;51.166;4.760;2023-03-23T13:28:47;15.30;99.90
27384;DHT22;14851;51.166;4.760;2023-03-23T13:31:16;15.30;99.90
27384;DHT22;14851;51.166;4.760;2023-03-23T13:33:49;15.30;99.90
27384;DHT22;14851;51.166;4.760;2023-03-23T13:36:17;15.40;99.90
27384;DHT22;14851;51.166;4.760;2023-03-23T13:38:50;15.40;99.90
27384;DHT22;14851;51.166;4.760;2023-03-23T13:41:18;15.40;99.90
27384;DHT22;14851;51.166;4.760;2023-03-23T13:43:47;15.40;99.90
27384;DHT22;14851;51.166;4.760;2023-03-23T13:46:27;15.40;99.90
27384;DHT22;14851;51.166;4.760;2023-03-23T13:52:00;15.40;99.90
27384;DHT22;14851;51.166;4.760;2023-03-23T14:01:56;15.40;99.90
27384;DHT22;14851;51.166;4.760;2023-03-23T14:04:31;15.40;99.90
27384;DHT22;14851;51.166;4.760;2023-03-23T14:07:11;15.40;99.90
27384;DHT22;14851;51.166;4.760;2023-03-23T14:09:41;15.40;99.90
27384;DHT22;14851;51.166;4.760;2023-03-23T14:12:27;15.30;99.90
27384;DHT22;14851;51.166;4.760;2023-03-23T14:15:02;15.30;99.90
27384;DHT22;14851;51.166;4.760;2023-03-23T14:17:33;15.30;99.90
27384;DHT22;14851;51.166;4.760;2023-03-23T14:20:00;15.30;99.90
27384;DHT22;14851;51.166;4.760;2023-03-23T14:22:39;15.30;99.90
27384;DHT22;14851;51.166;4.760;2023-03-23T14:25:17;15.30;99.90
27384;DHT22;14851;51.166;4.760;2023-03-23T14:27:47;15.30;99.90
27384;DHT22;14851;51.166;4.760;2023-03-23T14:30:17;15.30;99.90
27384;DHT22;14851;51.166;4.760;2023-03-23T14:32:44;15.20;99.90
27384;DHT22;14851;51.166;4.760;2023-03-23T14:35:31;15.20;99.90
27384;DHT22;14851;51.166;4.760;2023-03-23T14:37:58;15.30;99.90
27384;DHT22;14851;51.166;4.760;2023-03-23T14:40:27;15.30;99.90
27384;DHT22;14851;51.166;4.760;2023-03-23T14:42:53;15.30;99.90
27384;DHT22;14851;51.166;4.760;2023-03-23T14:45:22;15.20;99.90
27384;DHT22;14851;51.166;4.760;2023-03-23T14:47:57;15.20;99.90
27384;DHT22;14851;51.166;4.760;2023-03-23T14:50:29;15.30;99.90
27384;DHT22;14851;51.166;4.760;2023-03-23T14:53:24;15.20;99.90
27384;DHT22;14851;51.166;4.760;2023-03-23T14:55:52;15.20;99.90
27384;DHT22;14851;51.166;4.760;2023-03-23T14:58:20;15.20;99.90
27384;DHT22;14851;51.166;4.760;2023-03-23T15:00:52;15.20;99.90
27384;DHT22;14851;51.166;4.760;2023-03-23T15:03:21;15.20;99.90
27384;DHT22;14851;51.166;4.760;2023-03-23T15:05:57;15.20;99.90
27384;DHT22;14851;51.166;4.760;2023-03-23T15:08:30;15.20;99.90
27384;DHT22;14851;51.166;4.760;2023-03-23T15:11:27;15.20;99.90
27384;DHT22;14851;51.166;4.760;2023-03-23T15:14:00;15.20;99.90
27384;DHT22;14851;51.166;4.760;2023-03-23T15:16:33;15.20;99.90
27384;DHT22;14851;51.166;4.760;2023-03-23T15:19:16;15.10;99.90
27384;DHT22;14851;51.166;4.760;2023-03-23T15:22:03;15.20;99.90
27384;DHT22;14851;51.166;4.760;2023-03-23T15:24:34;15.30;99.90
27384;DHT22;14851;51.166;4.760;2023-03-23T15:29:46;15.30;99.90
27384;DHT22;14851;51.166;4.760;2023-03-23T15:32:12;15.40;99.90
27384;DHT22;14851;51.166;4.760;2023-03-23T15:34:38;15.30;99.90
27384;DHT22;14851;51.166;4.760;2023-03-23T15:37:16;15.20;99.90
27384;DHT22;14851;51.166;4.760;2023-03-23T15:39:45;15.10;99.90
27384;DHT22;14851;51.166;4.760;2023-03-23T15:42:31;15.20;99.90
27384;DHT22;14851;51.166;4.760;2023-03-23T15:50:20;15.30;99.90
27384;DHT22;14851;51.166;4.760;2023-03-23T15:52:57;15.30;99.90
27384;DHT22;14851;51.166;4.760;2023-03-23T15:55:28;15.20;99.90
27384;DHT22;14851;51.166;4.760;2023-03-23T15:57:56;15.20;99.90
27384;DHT22;14851;51.166;4.760;2023-03-23T16:00:25;15.20;99.90
27384;DHT22;14851;51.166;4.760;2023-03-23T16:03:00;15.20;99.90
27384;DHT22;14851;51.166;4.760;2023-03-23T16:05:27;15.20;99.90
27384;DHT22;14851;51.166;4.760;2023-03-23T16:07:55;15.20;99.90
27384;DHT22;14851;51.166;4.760;2023-03-23T16:10:26;15.30;99.90
27384;DHT22;14851;51.166;4.760;2023-03-23T16:12:52;15.30;99.90
27384;DHT22;14851;51.166;4.760;2023-03-23T16:15:19;15.40;99.90
27384;DHT22;14851;51.166;4.760;2023-03-23T16:17:45;15.30;99.90
27384;DHT22;14851;51.166;4.760;2023-03-23T16:20:15;15.30;99.90
27384;DHT22;14851;51.166;4.760;2023-03-23T16:22:41;15.30;99.90
27384;DHT22;14851;51.166;4.760;2023-03-23T16:25:11;15.20;99.90
27384;DHT22;14851;51.166;4.760;2023-03-23T16:27:39;15.30;99.90
27384;DHT22;14851;51.166;4.760;2023-03-23T16:30:22;15.30;99.90
27384;DHT22;14851;51.166;4.760;2023-03-23T16:32:48;15.30;99.90
27384;DHT22;14851;51.166;4.760;2023-03-23T16:35:16;15.20;99.90
27384;DHT22;14851;51.166;4.760;2023-03-23T16:37:50;15.10;99.90
27384;DHT22;14851;51.166;4.760;2023-03-23T16:40:18;15.00;99.90
27384;DHT22;14851;51.166;4.760;2023-03-23T16:42:44;14.90;99.90
27384;DHT22;14851;51.166;4.760;2023-03-23T16:45:11;14.80;99.90
27384;DHT22;14851;51.166;4.760;2023-03-23T16:47:38;14.80;99.90
27384;DHT22;14851;51.166;4.760;2023-03-23T16:50:06;14.70;99.90
27384;DHT22;14851;51.166;4.760;2023-03-23T16:52:35;14.60;99.90
27384;DHT22;14851;51.166;4.760;2023-03-23T16:55:01;14.60;99.90
27384;DHT22;14851;51.166;4.760;2023-03-23T16:57:28;14.50;99.90
27384;DHT22;14851;51.166;4.760;2023-03-23T16:59:56;14.50;99.90
27384;DHT22;14851;51.166;4.760;2023-03-23T17:02:23;14.50;99.90
27384;DHT22;14851;51.166;4.760;2023-03-23T17:04:50;14.50;99.90
27384;DHT22;14851;51.166;4.760;2023-03-23T17:07:16;14.40;99.90
27384;DHT22;14851;51.166;4.760;2023-03-23T17:09:41;14.40;99.90
27384;DHT22;14851;51.166;4.760;2023-03-23T17:12:10;14.40;99.90
27384;DHT22;14851;51.166;4.760;2023-03-23T17:14:38;14.40;99.90
27384;DHT22;14851;51.166;4.760;2023-03-23T17:17:06;14.40;99.90
27384;DHT22;14851;51.166;4.760;2023-03-23T17:19:36;14.40;99.90
27384;DHT22;14851;51.166;4.760;2023-03-23T17:22:04;14.30;99.90
27384;DHT22;14851;51.166;4.760;2023-03-23T17:24:31;14.40;99.90
27384;DHT22;14851;51.166;4.760;2023-03-23T17:27:01;14.40;99.90
27384;DHT22;14851;51.166;4.760;2023-03-23T17:29:27;14.40;99.90
27384;DHT22;14851;51.166;4.760;2023-03-23T17:31:56;14.40;99.90
27384;DHT22;14851;51.166;4.760;2023-03-23T17:34:23;14.40;99.90
27384;DHT22;14851;51.166;4.760;2023-03-23T17:36:49;14.40;99.90
27384;DHT22;14851;51.166;4.760;2023-03-23T17:39:15;14.40;99.90
27384;DHT22;14851;51.166;4.760;2023-03-23T17:41:41;14.40;99.90
27384;DHT22;14851;51.166;4.760;2023-03-23T17:44:08;14.40;99.90
27384;DHT22;14851;51.166;4.760;2023-03-23T17:46:34;14.50;99.90
27384;DHT22;14851;51.166;4.760;2023-03-23T17:49:00;14.50;99.90
27384;DHT22;14851;51.166;4.760;2023-03-23T17:51:26;14.50;99.90
27384;DHT22;14851;51.166;4.760;2023-03-23T17:53:52;14.50;99.90
27384;DHT22;14851;51.166;4.760;2023-03-23T17:56:18;14.50;99.90
27384;DHT22;14851;51.166;4.760;2023-03-23T17:58:44;14.40;99.90
27384;DHT22;14851;51.166;4.760;2023-03-23T18:01:10;14.40;99.90